Time;durP1;ratioP1;P1;durP2;ratioP2;P2;SDS_P1;SDS_P2;PMS_P1;PMS_P2;Temp;Humidity;BMP_temperature;BMP_pressure;BME280_temperature;BME280_humidity;BME280_pressure;Samples;Min_cycle;Max_cycle;Signal;HPM_P1;HPM_P2
2022/03/17 00:02:03;;;;;;;;;;;10.80;99.90;;;;;;4329161;33;43444;-84
2022/03/17 00:04:31;;;;;;;;;;;10.80;99.90;;;;;;4329642;33;43088;-84
2022/03/17 00:06:59;;;;;;;;;;;10.80;99.90;;;;;;4329479;33;44220;-85
2022/03/17 00:09:26;;;;;;;;;;;10.80;99.90;;;;;;4330138;33;45122;-85
2022/03/17 00:11:53;;;;;;;;;;;10.80;99.90;;;;;;4330473;33;43267;-85
2022/03/17 00:14:20;;;;;;;;;;;10.80;99.90;;;;;;4328863;33;46088;-85
2022/03/17 00:16:47;;;;;;;;;;;10.80;99.90;;;;;;4329695;33;43846;-85
2022/03/17 00:19:15;;;;;;;;;;;10.80;99.90;;;;;;4330481;33;43396;-86
2022/03/17 00:21:42;;;;;;;;;;;10.80;99.90;;;;;;4330073;33;43438;-85
2022/03/17 00:24:09;;;;;;;;;;;10.80;99.90;;;;;;4330010;33;42953;-85
2022/03/17 00:26:36;;;;;;;;;;;10.80;99.90;;;;;;4328999;33;44209;-85
2022/03/17 00:29:07;;;;;;;;;;;10.80;99.90;;;;;;4329233;33;42918;-85
2022/03/17 00:31:37;;;;;;;;;;;10.80;99.90;;;;;;4330409;33;45709;-85
2022/03/17 00:34:08;;;;;;;;;;;10.80;99.90;;;;;;4331183;33;43297;-84
2022/03/17 00:36:35;;;;;;;;;;;10.80;99.90;;;;;;4332178;33;43489;-85
2022/03/17 00:39:04;;;;;;;;;;;10.80;99.90;;;;;;4331848;33;43054;-85
2022/03/17 00:41:32;;;;;;;;;;;10.80;99.90;;;;;;4332067;33;42730;-85
2022/03/17 00:43:59;;;;;;;;;;;10.80;99.90;;;;;;4331777;33;44725;-85
2022/03/17 00:46:26;;;;;;;;;;;10.80;99.90;;;;;;4332310;33;43272;-84
2022/03/17 00:48:53;;;;;;;;;;;10.80;99.90;;;;;;4331730;33;44031;-85
2022/03/17 00:51:20;;;;;;;;;;;10.80;99.90;;;;;;4331993;33;45966;-85
2022/03/17 00:53:47;;;;;;;;;;;10.80;99.90;;;;;;4332833;33;43261;-84
2022/03/17 00:56:15;;;;;;;;;;;10.80;99.90;;;;;;4333035;33;44936;-85
2022/03/17 00:58:45;;;;;;;;;;;10.80;99.90;;;;;;4332668;33;43284;-85
2022/03/17 01:01:14;;;;;;;;;;;10.80;99.90;;;;;;4331584;33;42914;-85
2022/03/17 01:03:42;;;;;;;;;;;10.80;99.90;;;;;;4331571;33;44123;-85
2022/03/17 01:06:10;;;;;;;;;;;10.80;99.90;;;;;;4332051;33;45706;-85
2022/03/17 01:08:37;;;;;;;;;;;10.80;99.90;;;;;;4331436;33;44352;-85
2022/03/17 01:11:05;;;;;;;;;;;10.80;99.90;;;;;;4332604;33;43945;-84
2022/03/17 01:13:32;;;;;;;;;;;10.80;99.90;;;;;;4332166;33;20001;-85
2022/03/17 01:15:59;;;;;;;;;;;10.80;99.90;;;;;;4331438;33;43960;-85
2022/03/17 01:18:26;;;;;;;;;;;10.80;99.90;;;;;;4332490;33;43504;-85
2022/03/17 01:20:53;;;;;;;;;;;10.80;99.90;;;;;;4332977;33;44194;-85
2022/03/17 01:23:20;;;;;;;;;;;10.80;99.90;;;;;;4332826;33;44990;-85
2022/03/17 01:25:47;;;;;;;;;;;10.80;99.90;;;;;;4331744;33;43899;-85
2022/03/17 01:28:14;;;;;;;;;;;10.80;99.90;;;;;;4331691;33;43324;-85
2022/03/17 01:30:41;;;;;;;;;;;10.80;99.90;;;;;;4331461;33;44937;-86
2022/03/17 01:33:08;;;;;;;;;;;10.80;99.90;;;;;;4331324;33;42259;-85
2022/03/17 01:35:36;;;;;;;;;;;10.80;99.90;;;;;;4330981;33;43793;-85
2022/03/17 01:38:03;;;;;;;;;;;10.80;99.90;;;;;;4331262;33;43866;-85
2022/03/17 01:40:30;;;;;;;;;;;10.80;99.90;;;;;;4332349;33;44955;-85
2022/03/17 01:42:57;;;;;;;;;;;10.80;99.90;;;;;;4331001;33;44089;-87
2022/03/17 01:45:26;;;;;;;;;;;10.80;99.90;;;;;;4330356;33;44279;-85
2022/03/17 01:47:53;;;;;;;;;;;10.90;99.90;;;;;;4330850;33;42712;-85
2022/03/17 01:50:20;;;;;;;;;;;10.80;99.90;;;;;;4332124;33;44288;-85
2022/03/17 01:52:48;;;;;;;;;;;10.80;99.90;;;;;;4331224;33;45722;-85
2022/03/17 01:55:17;;;;;;;;;;;10.90;99.90;;;;;;4331244;33;42797;-85
2022/03/17 01:57:45;;;;;;;;;;;10.90;99.90;;;;;;4331199;33;43937;-85
2022/03/17 02:00:14;;;;;;;;;;;10.90;99.90;;;;;;4330720;33;45996;-84
2022/03/17 02:02:42;;;;;;;;;;;10.80;99.90;;;;;;4330622;33;43428;-85
2022/03/17 02:05:10;;;;;;;;;;;10.90;99.90;;;;;;4331126;33;45346;-84
2022/03/17 02:07:37;;;;;;;;;;;10.80;99.90;;;;;;4330954;33;42790;-84
2022/03/17 02:10:05;;;;;;;;;;;10.80;99.90;;;;;;4331691;33;42406;-84
2022/03/17 02:15:18;;;;;;;;;;;10.90;99.90;;;;;;4331709;33;42665;-84
2022/03/17 02:17:45;;;;;;;;;;;10.90;99.90;;;;;;4331152;33;44239;-85
2022/03/17 02:20:13;;;;;;;;;;;10.90;99.90;;;;;;4330820;33;46438;-84
2022/03/17 02:22:42;;;;;;;;;;;10.90;99.90;;;;;;4330286;33;45840;-85
2022/03/17 02:27:55;;;;;;;;;;;10.90;99.90;;;;;;4331467;33;44127;-85
2022/03/17 02:30:23;;;;;;;;;;;10.80;99.90;;;;;;4331015;33;44028;-85
2022/03/17 02:32:50;;;;;;;;;;;10.90;99.90;;;;;;4330576;33;46389;-85
2022/03/17 02:35:22;;;;;;;;;;;10.90;99.90;;;;;;4330559;33;43619;-85
2022/03/17 02:37:50;;;;;;;;;;;10.90;99.90;;;;;;4330853;33;45702;-85
2022/03/17 02:40:17;;;;;;;;;;;10.90;99.90;;;;;;4330305;33;44066;-85
2022/03/17 02:42:45;;;;;;;;;;;10.90;99.90;;;;;;4330474;33;45792;-85
2022/03/17 02:45:12;;;;;;;;;;;10.90;99.90;;;;;;4330232;33;44201;-84
2022/03/17 02:47:40;;;;;;;;;;;10.90;99.90;;;;;;4330421;33;42964;-85
2022/03/17 02:50:10;;;;;;;;;;;10.90;99.90;;;;;;4330444;33;44183;-84
2022/03/17 02:52:37;;;;;;;;;;;10.90;99.90;;;;;;4330043;33;44865;-84
2022/03/17 02:55:05;;;;;;;;;;;10.90;99.90;;;;;;4329949;33;42866;-84
2022/03/17 02:57:32;;;;;;;;;;;10.90;99.90;;;;;;4330119;33;43962;-85
2022/03/17 02:59:59;;;;;;;;;;;10.90;99.90;;;;;;4331492;33;44961;-84
2022/03/17 03:02:26;;;;;;;;;;;10.90;99.90;;;;;;4329618;33;44258;-85
2022/03/17 03:04:54;;;;;;;;;;;10.90;99.90;;;;;;4329873;33;42889;-84
2022/03/17 03:07:21;;;;;;;;;;;10.90;99.90;;;;;;4331384;33;43950;-85
2022/03/17 03:09:48;;;;;;;;;;;10.90;99.90;;;;;;4329839;33;43582;-84
2022/03/17 03:12:15;;;;;;;;;;;10.90;99.90;;;;;;4330761;33;42603;-83
2022/03/17 03:14:42;;;;;;;;;;;10.90;99.90;;;;;;4330718;33;43489;-84
2022/03/17 03:17:09;;;;;;;;;;;10.90;99.90;;;;;;4330161;33;44469;-84
2022/03/17 03:19:36;;;;;;;;;;;10.90;99.90;;;;;;4330057;33;43524;-85
2022/03/17 03:22:03;;;;;;;;;;;10.90;99.90;;;;;;4329632;33;42478;-84
2022/03/17 03:24:31;;;;;;;;;;;10.90;99.90;;;;;;4329639;33;45736;-85
2022/03/17 03:26:58;;;;;;;;;;;10.90;99.90;;;;;;4329621;33;42266;-85
2022/03/17 03:29:28;;;;;;;;;;;11.00;99.90;;;;;;4330974;33;44941;-84
2022/03/17 03:31:56;;;;;;;;;;;10.90;99.90;;;;;;4329470;33;44836;-85
2022/03/17 03:34:23;;;;;;;;;;;10.90;99.90;;;;;;4329610;33;43496;-84
2022/03/17 03:39:38;;;;;;;;;;;10.90;99.90;;;;;;4330481;33;44083;-84
2022/03/17 03:42:05;;;;;;;;;;;10.90;99.90;;;;;;4329824;33;43251;-84
2022/03/17 03:44:33;;;;;;;;;;;10.90;99.90;;;;;;4330529;33;42902;-85
2022/03/17 03:47:00;;;;;;;;;;;10.90;99.90;;;;;;4329696;33;44053;-85
2022/03/17 03:49:29;;;;;;;;;;;10.80;99.90;;;;;;4329463;33;44334;-85
2022/03/17 03:51:56;;;;;;;;;;;10.80;99.90;;;;;;4329345;33;43160;-84
2022/03/17 03:54:23;;;;;;;;;;;10.80;99.90;;;;;;4329701;33;44273;-85
2022/03/17 03:56:52;;;;;;;;;;;10.80;99.90;;;;;;4330708;33;44459;-85
2022/03/17 03:59:23;;;;;;;;;;;10.80;99.90;;;;;;4329188;33;42362;-84
2022/03/17 04:01:55;;;;;;;;;;;10.80;99.90;;;;;;4329418;33;43500;-85
2022/03/17 04:04:23;;;;;;;;;;;10.70;99.90;;;;;;4329408;33;44040;-84
2022/03/17 04:06:51;;;;;;;;;;;10.70;99.90;;;;;;4328856;33;43809;-84
2022/03/17 04:09:20;;;;;;;;;;;10.70;99.90;;;;;;4329794;33;45959;-85
2022/03/17 04:11:47;;;;;;;;;;;10.70;99.90;;;;;;4329169;33;44294;-85
2022/03/17 04:14:14;;;;;;;;;;;10.70;99.90;;;;;;4329423;33;43968;-85
2022/03/17 04:16:42;;;;;;;;;;;10.70;99.90;;;;;;4329166;33;42814;-85
2022/03/17 04:19:09;;;;;;;;;;;10.60;99.90;;;;;;4330390;33;43852;-85
2022/03/17 04:21:36;;;;;;;;;;;10.70;99.90;;;;;;4330477;33;42737;-85
2022/03/17 04:24:04;;;;;;;;;;;10.60;99.90;;;;;;4329091;33;43330;-85
2022/03/17 04:26:31;;;;;;;;;;;10.60;99.90;;;;;;4330437;33;45223;-85
2022/03/17 04:28:58;;;;;;;;;;;10.60;99.90;;;;;;4329394;33;43216;-84
2022/03/17 04:31:25;;;;;;;;;;;10.60;99.90;;;;;;4330536;33;43091;-84
2022/03/17 04:33:52;;;;;;;;;;;10.60;99.90;;;;;;4329257;33;44279;-84
2022/03/17 04:36:19;;;;;;;;;;;10.60;99.90;;;;;;4329935;33;43755;-85
2022/03/17 04:38:46;;;;;;;;;;;10.60;99.90;;;;;;4329227;33;43577;-84
2022/03/17 04:41:14;;;;;;;;;;;10.60;99.90;;;;;;4329523;33;43519;-85
2022/03/17 04:43:41;;;;;;;;;;;10.50;99.90;;;;;;4328858;33;43076;-86
2022/03/17 04:46:08;;;;;;;;;;;10.50;99.90;;;;;;4328976;33;42329;-85
2022/03/17 04:48:36;;;;;;;;;;;10.50;99.90;;;;;;4329262;33;44487;-85
2022/03/17 04:51:03;;;;;;;;;;;10.50;99.90;;;;;;4329133;33;44096;-84
2022/03/17 04:53:32;;;;;;;;;;;10.50;99.90;;;;;;4328716;33;42984;-85
2022/03/17 04:56:03;;;;;;;;;;;10.50;99.90;;;;;;4328832;33;43224;-84
2022/03/17 04:58:31;;;;;;;;;;;10.50;99.90;;;;;;4328836;33;42866;-85
2022/03/17 05:00:58;;;;;;;;;;;10.50;99.90;;;;;;4328940;33;44665;-85
2022/03/17 05:03:26;;;;;;;;;;;10.50;99.90;;;;;;4330024;33;43933;-85
2022/03/17 05:05:53;;;;;;;;;;;10.50;99.90;;;;;;4329042;33;44891;-85
2022/03/17 05:08:21;;;;;;;;;;;10.50;99.90;;;;;;4328835;33;43324;-86
2022/03/17 05:10:48;;;;;;;;;;;10.50;99.90;;;;;;4329750;33;43356;-86
2022/03/17 05:13:17;;;;;;;;;;;10.40;99.90;;;;;;4328913;33;44779;-85
2022/03/17 05:15:46;;;;;;;;;;;10.40;99.90;;;;;;4329070;33;45926;-85
2022/03/17 05:18:13;;;;;;;;;;;10.40;99.90;;;;;;4328959;33;44498;-85
2022/03/17 05:20:41;;;;;;;;;;;10.40;99.90;;;;;;4331593;33;44103;-85
2022/03/17 05:23:08;;;;;;;;;;;10.40;99.90;;;;;;4331401;33;43184;-85
2022/03/17 05:25:36;;;;;;;;;;;10.40;99.90;;;;;;4331918;33;44176;-85
2022/03/17 05:28:04;;;;;;;;;;;10.40;99.90;;;;;;4331089;33;44794;-85
2022/03/17 05:30:32;;;;;;;;;;;10.40;99.90;;;;;;4331693;33;43244;-85
2022/03/17 05:32:59;;;;;;;;;;;10.40;99.90;;;;;;4331581;33;44328;-85
2022/03/17 05:35:26;;;;;;;;;;;10.40;99.90;;;;;;4331288;33;42777;-86
2022/03/17 05:37:54;;;;;;;;;;;10.40;99.90;;;;;;4331641;33;44241;-85
2022/03/17 05:40:23;;;;;;;;;;;10.40;99.90;;;;;;4331504;33;43917;-85
2022/03/17 05:42:52;;;;;;;;;;;10.40;99.90;;;;;;4332517;33;44232;-85
2022/03/17 05:45:20;;;;;;;;;;;10.40;99.90;;;;;;4332371;33;44229;-85
2022/03/17 05:47:51;;;;;;;;;;;10.30;99.90;;;;;;4331223;33;45393;-85
2022/03/17 05:50:20;;;;;;;;;;;10.40;99.90;;;;;;4330998;33;45189;-85
2022/03/17 05:52:47;;;;;;;;;;;10.30;99.90;;;;;;4332009;33;44139;-85
2022/03/17 05:55:15;;;;;;;;;;;10.30;99.90;;;;;;4332123;33;42941;-85
2022/03/17 05:57:45;;;;;;;;;;;10.30;99.90;;;;;;4331736;33;43156;-85
2022/03/17 06:00:13;;;;;;;;;;;10.30;99.90;;;;;;4330671;33;44598;-86
2022/03/17 06:02:40;;;;;;;;;;;10.30;99.90;;;;;;4331800;33;43526;-85
2022/03/17 06:05:07;;;;;;;;;;;10.30;99.90;;;;;;4332213;33;45666;-85
2022/03/17 06:07:42;;;;;;;;;;;10.30;99.90;;;;;;4331043;33;46160;-85
2022/03/17 06:10:16;;;;;;;;;;;10.30;99.90;;;;;;4331750;33;43458;-85
2022/03/17 06:12:44;;;;;;;;;;;10.20;99.90;;;;;;4331015;33;45053;-85
2022/03/17 06:15:11;;;;;;;;;;;10.30;99.90;;;;;;4330720;33;43160;-85
2022/03/17 06:17:40;;;;;;;;;;;10.20;99.90;;;;;;4330894;33;45923;-85
2022/03/17 06:20:09;;;;;;;;;;;10.20;99.90;;;;;;4331587;33;45785;-85
2022/03/17 06:22:37;;;;;;;;;;;10.20;99.90;;;;;;4332044;33;44057;-85
2022/03/17 06:25:05;;;;;;;;;;;10.20;99.90;;;;;;4330691;33;45003;-85
2022/03/17 06:27:34;;;;;;;;;;;10.20;99.90;;;;;;4331894;33;44192;-86
2022/03/17 06:30:02;;;;;;;;;;;10.20;99.90;;;;;;4330564;33;44985;-85
2022/03/17 06:32:30;;;;;;;;;;;10.10;99.90;;;;;;4330584;33;44932;-85
2022/03/17 06:34:57;;;;;;;;;;;10.10;99.90;;;;;;4330831;33;44195;-85
2022/03/17 06:37:24;;;;;;;;;;;10.20;99.90;;;;;;4330572;33;45705;-85
2022/03/17 06:39:55;;;;;;;;;;;10.10;99.90;;;;;;4330037;33;45711;-86
2022/03/17 06:42:22;;;;;;;;;;;10.10;99.90;;;;;;4330681;33;45440;-85
2022/03/17 06:44:49;;;;;;;;;;;10.10;99.90;;;;;;4330568;33;43889;-85
2022/03/17 06:47:20;;;;;;;;;;;10.10;99.90;;;;;;4330512;33;44013;-85
2022/03/17 06:49:47;;;;;;;;;;;10.10;99.90;;;;;;4331055;33;45110;-85
2022/03/17 06:52:14;;;;;;;;;;;10.10;99.90;;;;;;4330311;33;43611;-87
2022/03/17 06:54:41;;;;;;;;;;;10.10;99.90;;;;;;4330499;33;43322;-85
2022/03/17 06:57:09;;;;;;;;;;;10.00;99.90;;;;;;4330009;33;43726;-85
2022/03/17 06:59:37;;;;;;;;;;;10.00;99.90;;;;;;4330288;33;45442;-85
2022/03/17 07:02:05;;;;;;;;;;;10.10;99.90;;;;;;4329879;33;44052;-85
2022/03/17 07:04:32;;;;;;;;;;;10.00;99.90;;;;;;4330141;33;44253;-85
2022/03/17 07:06:59;;;;;;;;;;;10.00;99.90;;;;;;4330326;33;43482;-85
2022/03/17 07:09:26;;;;;;;;;;;10.00;99.90;;;;;;4330133;33;45349;-85
2022/03/17 07:11:53;;;;;;;;;;;10.00;99.90;;;;;;4330245;33;44253;-85
2022/03/17 07:14:20;;;;;;;;;;;10.00;99.90;;;;;;4329720;33;43924;-85
2022/03/17 07:16:47;;;;;;;;;;;10.00;99.90;;;;;;4331112;33;44129;-86
2022/03/17 07:19:15;;;;;;;;;;;9.90;99.90;;;;;;4329631;33;45278;-85
2022/03/17 07:21:42;;;;;;;;;;;10.00;99.90;;;;;;4329934;33;46001;-85
2022/03/17 07:24:09;;;;;;;;;;;10.00;99.90;;;;;;4329882;33;43474;-85
2022/03/17 07:26:41;;;;;;;;;;;10.00;99.90;;;;;;4331062;33;44248;-85
2022/03/17 07:29:08;;;;;;;;;;;9.90;99.90;;;;;;4330945;33;44289;-85
2022/03/17 07:31:35;;;;;;;;;;;9.90;99.90;;;;;;4329739;33;43762;-85
2022/03/17 07:34:02;;;;;;;;;;;9.90;99.90;;;;;;4329448;33;44539;-85
2022/03/17 07:36:29;;;;;;;;;;;9.90;99.90;;;;;;4329792;33;43349;-86
2022/03/17 07:38:56;;;;;;;;;;;10.00;99.90;;;;;;4330393;33;45070;-85
2022/03/17 07:41:24;;;;;;;;;;;9.90;99.90;;;;;;4329922;33;43332;-85
2022/03/17 07:43:51;;;;;;;;;;;9.90;99.90;;;;;;4330700;33;42730;-84
2022/03/17 07:46:19;;;;;;;;;;;9.90;99.90;;;;;;4330329;33;19997;-84
2022/03/17 07:48:46;;;;;;;;;;;9.90;99.90;;;;;;4329694;33;44271;-84
2022/03/17 07:51:14;;;;;;;;;;;9.90;99.90;;;;;;4329525;33;44773;-85
2022/03/17 07:53:42;;;;;;;;;;;9.90;99.90;;;;;;4329241;33;44022;-85
2022/03/17 07:56:12;;;;;;;;;;;9.90;99.90;;;;;;4329417;33;42999;-85
2022/03/17 07:58:39;;;;;;;;;;;9.90;99.90;;;;;;4330107;33;44184;-85
2022/03/17 08:01:06;;;;;;;;;;;9.90;99.90;;;;;;4329526;33;43647;-85
2022/03/17 08:03:33;;;;;;;;;;;9.90;99.90;;;;;;4328940;33;43419;-85
2022/03/17 08:06:01;;;;;;;;;;;9.90;99.90;;;;;;4329605;33;44251;-86
2022/03/17 08:08:28;;;;;;;;;;;9.90;99.90;;;;;;4329443;33;43831;-84
2022/03/17 08:10:57;;;;;;;;;;;9.90;99.90;;;;;;4330262;33;45321;-84
2022/03/17 08:13:25;;;;;;;;;;;9.90;99.90;;;;;;4329096;33;43291;-84
2022/03/17 08:15:52;;;;;;;;;;;9.90;99.90;;;;;;4329446;33;42372;-84
2022/03/17 08:18:20;;;;;;;;;;;9.90;99.90;;;;;;4329352;33;44343;-84
2022/03/17 08:20:47;;;;;;;;;;;9.90;99.90;;;;;;4329082;33;43896;-85
2022/03/17 08:23:21;;;;;;;;;;;9.80;99.90;;;;;;4330538;33;44872;-85
2022/03/17 08:25:49;;;;;;;;;;;9.90;99.90;;;;;;4329232;33;43923;-85
2022/03/17 08:28:17;;;;;;;;;;;9.90;99.90;;;;;;4330451;33;45775;-85
2022/03/17 08:30:48;;;;;;;;;;;9.90;99.90;;;;;;4329526;33;43863;-86
2022/03/17 08:33:16;;;;;;;;;;;9.80;99.90;;;;;;4330078;33;43946;-84
2022/03/17 08:35:43;;;;;;;;;;;9.80;99.90;;;;;;4330431;33;45221;-84
2022/03/17 08:38:11;;;;;;;;;;;9.80;99.90;;;;;;4329247;33;43938;-84
2022/03/17 08:40:40;;;;;;;;;;;9.80;99.90;;;;;;4329923;33;43757;-84
2022/03/17 08:43:10;;;;;;;;;;;9.80;99.90;;;;;;4329495;33;43889;-84
2022/03/17 08:51:10;;;;;;;;;;;9.80;99.90;;;;;;4330408;33;43583;-84
2022/03/17 08:53:37;;;;;;;;;;;9.80;99.90;;;;;;4329629;33;44298;-85
2022/03/17 08:56:05;;;;;;;;;;;9.80;99.90;;;;;;4333133;33;43068;-84
2022/03/17 08:58:34;;;;;;;;;;;9.80;99.90;;;;;;4331609;33;43444;-85
2022/03/17 09:01:01;;;;;;;;;;;9.80;99.90;;;;;;4333173;33;43307;-84
2022/03/17 09:03:30;;;;;;;;;;;9.80;99.90;;;;;;4331673;33;45979;-84
2022/03/17 09:05:59;;;;;;;;;;;9.80;99.90;;;;;;4332640;33;43450;-84
2022/03/17 09:08:26;;;;;;;;;;;9.80;99.90;;;;;;4331863;33;42719;-85
2022/03/17 09:10:55;;;;;;;;;;;9.80;99.90;;;;;;4331542;33;44131;-84
2022/03/17 09:13:26;;;;;;;;;;;9.80;99.90;;;;;;4331582;33;42925;-84
2022/03/17 09:15:53;;;;;;;;;;;9.80;99.90;;;;;;4331481;33;45773;-84
2022/03/17 09:18:21;;;;;;;;;;;9.80;99.90;;;;;;4331320;33;45083;-84
2022/03/17 09:20:48;;;;;;;;;;;9.80;99.90;;;;;;4332731;33;43196;-85
2022/03/17 09:23:16;;;;;;;;;;;9.80;99.90;;;;;;4332775;33;43152;-85
2022/03/17 09:25:43;;;;;;;;;;;9.80;99.90;;;;;;4331444;33;43855;-84
2022/03/17 09:28:10;;;;;;;;;;;9.80;99.90;;;;;;4331435;33;42672;-85
2022/03/17 09:30:37;;;;;;;;;;;9.80;99.90;;;;;;4331498;33;42916;-84
2022/03/17 09:33:05;;;;;;;;;;;9.80;99.90;;;;;;4331571;33;46071;-84
2022/03/17 09:35:34;;;;;;;;;;;9.80;99.90;;;;;;4331531;33;43125;-85
2022/03/17 09:38:03;;;;;;;;;;;9.80;99.90;;;;;;4332368;33;44102;-84
2022/03/17 09:40:30;;;;;;;;;;;9.80;99.90;;;;;;4332057;33;44005;-85
2022/03/17 09:45:43;;;;;;;;;;;9.80;99.90;;;;;;4332131;33;44131;-85
2022/03/17 09:48:11;;;;;;;;;;;9.70;99.90;;;;;;4331449;33;44215;-85
2022/03/17 09:50:39;;;;;;;;;;;9.80;99.90;;;;;;4332497;33;43474;-84
2022/03/17 09:53:06;;;;;;;;;;;9.80;99.90;;;;;;4332051;33;43316;-84
2022/03/17 09:55:35;;;;;;;;;;;9.80;99.90;;;;;;4330791;33;46121;-84
2022/03/17 09:58:04;;;;;;;;;;;9.80;99.90;;;;;;4331275;33;44151;-84
2022/03/17 10:00:52;;;;;;;;;;;9.80;99.90;;;;;;4330743;33;42290;-84
2022/03/17 10:03:21;;;;;;;;;;;9.70;99.90;;;;;;4330689;33;44987;-84
2022/03/17 10:05:49;;;;;;;;;;;9.70;99.90;;;;;;4330082;33;43994;-84
2022/03/17 10:08:20;;;;;;;;;;;9.80;99.90;;;;;;4332287;33;45849;-84
2022/03/17 10:10:49;;;;;;;;;;;9.80;99.90;;;;;;4331091;33;43343;-84
2022/03/17 10:13:17;;;;;;;;;;;9.80;99.90;;;;;;4330933;33;43381;-84
2022/03/17 10:16:04;;;;;;;;;;;9.80;99.90;;;;;;4330590;33;43948;-85
2022/03/17 10:18:36;;;;;;;;;;;9.80;99.90;;;;;;4331067;33;43541;-85
2022/03/17 10:21:12;;;;;;;;;;;9.80;99.90;;;;;;4332189;33;44149;-84
2022/03/17 10:23:47;;;;;;;;;;;9.80;99.90;;;;;;4330921;33;43307;-85
2022/03/17 10:26:29;;;;;;;;;;;9.80;99.90;;;;;;4332039;33;45114;-84
2022/03/17 10:29:22;;;;;;;;;;;9.80;99.90;;;;;;4330697;33;42334;-84
2022/03/17 10:31:52;;;;;;;;;;;9.80;99.90;;;;;;4327578;33;43156;-84
2022/03/17 10:34:21;;;;;;;;;;;9.80;99.90;;;;;;4331585;33;45309;-84
2022/03/17 10:36:49;;;;;;;;;;;9.80;99.90;;;;;;4330646;33;43655;-84
2022/03/17 10:39:16;;;;;;;;;;;9.80;99.90;;;;;;4331254;33;42782;-84
2022/03/17 10:41:45;;;;;;;;;;;9.80;99.90;;;;;;4330139;33;45184;-84
2022/03/17 10:44:13;;;;;;;;;;;9.80;99.90;;;;;;4330506;33;44415;-84
2022/03/17 10:46:53;;;;;;;;;;;9.80;99.90;;;;;;4330103;33;43191;-84
2022/03/17 10:49:20;;;;;;;;;;;9.80;99.90;;;;;;4330854;33;43141;-85
2022/03/17 10:51:52;;;;;;;;;;;9.80;99.90;;;;;;4330161;33;42678;-84
2022/03/17 10:54:19;;;;;;;;;;;9.80;99.90;;;;;;4331092;33;42918;-84
2022/03/17 10:57:04;;;;;;;;;;;9.80;99.90;;;;;;4329937;33;44138;-84
2022/03/17 10:59:38;;;;;;;;;;;9.80;99.90;;;;;;4330971;33;42231;-84
2022/03/17 11:02:08;;;;;;;;;;;9.80;99.90;;;;;;4329696;33;46165;-84
2022/03/17 11:04:37;;;;;;;;;;;9.80;99.90;;;;;;4330130;33;43285;-84
2022/03/17 11:07:05;;;;;;;;;;;9.80;99.90;;;;;;4330238;33;43412;-84
2022/03/17 11:09:33;;;;;;;;;;;9.80;99.90;;;;;;4330079;33;44072;-85
2022/03/17 11:12:01;;;;;;;;;;;9.80;99.90;;;;;;4329806;33;44516;-84
2022/03/17 11:14:29;;;;;;;;;;;9.80;99.90;;;;;;4330037;33;42496;-84
2022/03/17 11:16:56;;;;;;;;;;;9.80;99.90;;;;;;4330672;33;43279;-84
2022/03/17 11:19:24;;;;;;;;;;;9.80;99.90;;;;;;4330106;33;44219;-84
2022/03/17 11:22:04;;;;;;;;;;;9.80;99.90;;;;;;4330015;33;44698;-84
2022/03/17 11:24:31;;;;;;;;;;;9.80;99.90;;;;;;4329753;33;42627;-84
2022/03/17 11:27:14;;;;;;;;;;;9.80;99.90;;;;;;4330082;33;43473;-84
2022/03/17 11:29:48;;;;;;;;;;;9.80;99.90;;;;;;4329605;33;44297;-84
2022/03/17 11:32:33;;;;;;;;;;;9.80;99.90;;;;;;4330589;33;42796;-84
2022/03/17 11:35:05;;;;;;;;;;;9.80;99.90;;;;;;4329601;33;43450;-84
2022/03/17 11:37:33;;;;;;;;;;;9.90;99.90;;;;;;4331118;33;45217;-84
2022/03/17 11:40:07;;;;;;;;;;;9.90;99.90;;;;;;4329964;33;43478;-83
2022/03/17 11:42:37;;;;;;;;;;;9.80;99.90;;;;;;4329912;33;45163;-84
2022/03/17 11:45:09;;;;;;;;;;;9.90;99.90;;;;;;4329954;33;43465;-85
2022/03/17 11:47:37;;;;;;;;;;;9.80;99.90;;;;;;4330401;33;43553;-84
2022/03/17 11:50:31;;;;;;;;;;;9.80;99.90;;;;;;4330434;33;20106;-84
2022/03/17 11:53:03;;;;;;;;;;;9.90;99.90;;;;;;4329488;33;44172;-84
2022/03/17 11:55:33;;;;;;;;;;;9.90;99.90;;;;;;4329744;33;43057;-84
2022/03/17 11:58:25;;;;;;;;;;;9.90;99.90;;;;;;4329297;33;43873;-84
2022/03/17 12:01:02;;;;;;;;;;;9.90;99.90;;;;;;4329611;33;43491;-84
2022/03/17 12:03:46;;;;;;;;;;;9.90;99.90;;;;;;4329532;33;43234;-84
2022/03/17 12:06:18;;;;;;;;;;;9.90;99.90;;;;;;4329527;33;44304;-84
2022/03/17 12:09:06;;;;;;;;;;;9.90;99.90;;;;;;4329131;33;44691;-84
2022/03/17 12:11:51;;;;;;;;;;;9.90;99.90;;;;;;4330417;33;43838;-84
2022/03/17 12:14:24;;;;;;;;;;;9.90;99.90;;;;;;4329632;33;43970;-85
2022/03/17 12:16:58;;;;;;;;;;;9.90;99.90;;;;;;4330858;33;43328;-84
2022/03/17 12:19:30;;;;;;;;;;;9.90;99.90;;;;;;4330600;33;44108;-84
2022/03/17 12:22:03;;;;;;;;;;;9.90;99.90;;;;;;4329479;33;44439;-84
2022/03/17 12:24:33;;;;;;;;;;;9.90;99.90;;;;;;4329886;33;45209;-84
2022/03/17 12:27:04;;;;;;;;;;;9.90;99.90;;;;;;4330383;33;46231;-84
2022/03/17 12:29:31;;;;;;;;;;;9.90;99.90;;;;;;4331583;33;45535;-84
2022/03/17 12:32:12;;;;;;;;;;;9.90;99.90;;;;;;4333324;33;43921;-84
2022/03/17 12:34:39;;;;;;;;;;;9.90;99.90;;;;;;4332328;33;43750;-84
2022/03/17 12:37:07;;;;;;;;;;;9.90;99.90;;;;;;4332267;33;43012;-84
2022/03/17 12:39:37;;;;;;;;;;;9.90;99.90;;;;;;4333184;33;45692;-84
2022/03/17 12:42:14;;;;;;;;;;;9.90;99.90;;;;;;4331827;33;44172;-84
2022/03/17 12:44:48;;;;;;;;;;;9.90;99.90;;;;;;4332293;33;44159;-84
2022/03/17 12:47:16;;;;;;;;;;;9.90;99.90;;;;;;4332154;33;43317;-85
2022/03/17 12:49:43;;;;;;;;;;;9.90;99.90;;;;;;4333237;33;44109;-84
2022/03/17 12:52:17;;;;;;;;;;;9.90;99.90;;;;;;4332867;33;19998;-84
2022/03/17 12:54:45;;;;;;;;;;;9.90;99.90;;;;;;4333180;33;44976;-84
2022/03/17 12:57:12;;;;;;;;;;;9.90;99.90;;;;;;4331739;33;44731;-84
2022/03/17 12:59:39;;;;;;;;;;;9.90;99.90;;;;;;4331368;33;45736;-84
2022/03/17 13:02:07;;;;;;;;;;;9.90;99.90;;;;;;4331571;33;41836;-84
2022/03/17 13:04:35;;;;;;;;;;;9.90;99.90;;;;;;4331456;33;44846;-85
2022/03/17 13:07:05;;;;;;;;;;;9.90;99.90;;;;;;4331488;33;45116;-84
2022/03/17 13:09:33;;;;;;;;;;;9.90;99.90;;;;;;4332825;33;44035;-85
2022/03/17 13:14:49;;;;;;;;;;;9.90;99.90;;;;;;4333061;33;43308;-84
2022/03/17 13:17:36;;;;;;;;;;;9.90;99.90;;;;;;4332418;33;42826;-84
2022/03/17 13:20:07;;;;;;;;;;;9.90;99.90;;;;;;4331722;33;44768;-84
2022/03/17 13:22:39;;;;;;;;;;;9.90;99.90;;;;;;4332342;33;20002;-84
2022/03/17 13:25:13;;;;;;;;;;;9.90;99.90;;;;;;4331801;33;43918;-84
2022/03/17 13:27:42;;;;;;;;;;;9.90;99.90;;;;;;4332389;33;44511;-84
2022/03/17 13:30:15;;;;;;;;;;;9.90;99.90;;;;;;4331726;33;45146;-84
2022/03/17 13:32:43;;;;;;;;;;;9.90;99.90;;;;;;4331642;33;44695;-84
2022/03/17 13:35:12;;;;;;;;;;;9.90;99.90;;;;;;4332431;33;43065;-84
2022/03/17 13:37:41;;;;;;;;;;;9.90;99.90;;;;;;4331647;33;44239;-85
2022/03/17 13:40:14;;;;;;;;;;;9.90;99.90;;;;;;4331346;33;44207;-85
2022/03/17 13:43:01;;;;;;;;;;;9.90;99.90;;;;;;4331191;33;44285;-84
2022/03/17 13:45:29;;;;;;;;;;;9.90;99.90;;;;;;4332387;33;44105;-84
2022/03/17 13:48:06;;;;;;;;;;;9.90;99.90;;;;;;4331427;33;43683;-84
2022/03/17 13:50:35;;;;;;;;;;;9.90;99.90;;;;;;4331462;33;43204;-85
2022/03/17 13:53:06;;;;;;;;;;;9.90;99.90;;;;;;4332266;33;20040;-84
2022/03/17 13:55:38;;;;;;;;;;;9.90;99.90;;;;;;4331158;33;43310;-84
2022/03/17 13:58:15;;;;;;;;;;;10.00;99.90;;;;;;4332483;33;44209;-84
2022/03/17 14:00:43;;;;;;;;;;;9.90;99.90;;;;;;4332339;33;43245;-84
2022/03/17 14:03:13;;;;;;;;;;;9.90;99.90;;;;;;4331635;33;44289;-84
2022/03/17 14:05:58;;;;;;;;;;;9.90;99.90;;;;;;4331867;33;43227;-84
2022/03/17 14:08:26;;;;;;;;;;;9.90;99.90;;;;;;4330882;33;43263;-84
2022/03/17 14:10:53;;;;;;;;;;;9.90;99.90;;;;;;4331777;33;43413;-84
2022/03/17 14:13:20;;;;;;;;;;;9.90;99.90;;;;;;4330701;33;44229;-84
2022/03/17 14:15:51;;;;;;;;;;;9.90;99.90;;;;;;4330539;33;42080;-85
2022/03/17 14:18:19;;;;;;;;;;;10.00;99.90;;;;;;4330862;33;42675;-84
2022/03/17 14:20:47;;;;;;;;;;;10.00;99.90;;;;;;4330683;33;43807;-84
2022/03/17 14:26:00;;;;;;;;;;;9.90;99.90;;;;;;4331770;33;44279;-84
2022/03/17 14:28:27;;;;;;;;;;;9.90;99.90;;;;;;4330765;33;44693;-84
2022/03/17 14:30:54;;;;;;;;;;;9.90;99.90;;;;;;4330624;33;44096;-83
2022/03/17 14:33:21;;;;;;;;;;;10.00;99.90;;;;;;4331590;33;42720;-84
2022/03/17 14:35:51;;;;;;;;;;;10.00;99.90;;;;;;4331467;33;44220;-85
2022/03/17 14:38:19;;;;;;;;;;;10.00;99.90;;;;;;4330402;33;43325;-84
2022/03/17 14:40:47;;;;;;;;;;;10.00;99.90;;;;;;4331182;33;42895;-84
2022/03/17 14:43:14;;;;;;;;;;;10.00;99.90;;;;;;4330252;33;42600;-84
2022/03/17 14:45:41;;;;;;;;;;;10.00;99.90;;;;;;4330227;33;43280;-84
2022/03/17 14:48:09;;;;;;;;;;;10.00;99.90;;;;;;4331486;33;43478;-84
2022/03/17 14:50:36;;;;;;;;;;;10.00;99.90;;;;;;4331161;33;43929;-84
2022/03/17 14:53:04;;;;;;;;;;;10.00;99.90;;;;;;4329482;33;44623;-84
2022/03/17 14:55:31;;;;;;;;;;;10.00;99.90;;;;;;4331526;33;42580;-84
2022/03/17 14:57:59;;;;;;;;;;;10.00;99.90;;;;;;4331031;33;42603;-84